Time;durP1;ratioP1;P1;durP2;ratioP2;P2;SDS_P1;SDS_P2;PMS_P1;PMS_P2;Temp;Humidity;BMP_temperature;BMP_pressure;BME280_temperature;BME280_humidity;BME280_pressure;Samples;Min_cycle;Max_cycle;Signal;HPM_P1;HPM_P2
2022/10/06 00:01:23;;;;;;;7.05;1.50;;;13.60;99.90;;;;;;5058832;28;20044;-75
2022/10/06 00:03:49;;;;;;;7.45;1.40;;;13.60;99.90;;;;;;5046414;28;20128;-76
2022/10/06 00:06:16;;;;;;;8.18;1.38;;;13.60;99.90;;;;;;5047320;28;20517;-76
2022/10/06 00:08:43;;;;;;;5.65;1.85;;;13.60;99.90;;;;;;5040547;28;20057;-76
2022/10/06 00:11:10;;;;;;;6.90;1.50;;;13.60;99.90;;;;;;5056042;28;20044;-76
2022/10/06 00:13:36;;;;;;;9.15;1.50;;;13.50;99.90;;;;;;5047282;28;20040;-76
2022/10/06 00:16:07;;;;;;;8.15;1.45;;;13.50;99.90;;;;;;5056813;28;20574;-75
2022/10/06 00:18:33;;;;;;;6.85;1.50;;;13.50;99.90;;;;;;5057822;28;20387;-76
2022/10/06 00:21:00;;;;;;;6.85;1.30;;;13.40;99.90;;;;;;5057488;28;20040;-76
2022/10/06 00:23:29;;;;;;;7.57;1.30;;;13.40;99.90;;;;;;5062643;28;20044;-76
2022/10/06 00:25:57;;;;;;;7.68;1.55;;;13.40;99.90;;;;;;5053250;28;20037;-76
2022/10/06 00:28:23;;;;;;;8.40;1.50;;;13.30;99.90;;;;;;5060736;28;20106;-76
2022/10/06 00:30:52;;;;;;;6.43;1.65;;;13.30;99.90;;;;;;5062816;28;20059;-77
2022/10/06 00:33:18;;;;;;;7.35;1.52;;;13.30;99.90;;;;;;5037597;28;20033;-76
2022/10/06 00:35:44;;;;;;;6.88;1.50;;;13.30;99.90;;;;;;5059815;28;20561;-76
2022/10/06 00:38:15;;;;;;;6.07;1.20;;;13.20;99.90;;;;;;5027075;28;20376;-76
2022/10/06 00:40:46;;;;;;;6.18;1.45;;;13.20;99.90;;;;;;5060516;28;20514;-77
2022/10/06 00:43:51;;;;;;;6.72;1.27;;;13.20;99.90;;;;;;5027189;28;20179;-76
2022/10/06 00:46:44;;;;;;;6.78;1.30;;;13.20;99.90;;;;;;5043464;28;20044;-77
2022/10/06 00:49:19;;;;;;;6.03;1.23;;;13.10;99.90;;;;;;5046414;28;20051;-77
2022/10/06 00:51:51;;;;;;;7.75;1.63;;;13.10;99.90;;;;;;5048320;28;20514;-77
2022/10/06 00:54:18;;;;;;;8.90;2.00;;;13.10;99.90;;;;;;5046419;28;20067;-76
2022/10/06 00:56:44;;;;;;;11.13;2.63;;;13.00;99.90;;;;;;5030587;28;20047;-77
2022/10/06 00:59:16;;;;;;;9.10;1.55;;;13.00;99.90;;;;;;5042210;28;20111;-76
2022/10/06 01:01:53;;;;;;;7.45;1.30;;;13.00;99.90;;;;;;5045975;28;20052;-77
2022/10/06 01:04:20;;;;;;;9.07;1.63;;;13.00;99.90;;;;;;5059310;28;20341;-77
2022/10/06 01:06:53;;;;;;;8.20;1.48;;;12.90;99.90;;;;;;5062634;28;20051;-76
2022/10/06 01:09:24;;;;;;;10.82;1.85;;;12.90;99.90;;;;;;5038594;28;20052;-77
2022/10/06 01:11:52;;;;;;;6.18;1.38;;;12.80;99.90;;;;;;5041460;28;20510;-75
2022/10/06 01:14:19;;;;;;;8.20;1.83;;;12.80;99.90;;;;;;5054221;28;20044;-77
2022/10/06 01:16:50;;;;;;;9.07;1.60;;;12.80;99.90;;;;;;5043287;28;20044;-76
2022/10/06 01:20:11;;;;;;;11.70;1.85;;;12.70;99.90;;;;;;5043937;28;20052;-76
2022/10/06 01:22:57;;;;;;;8.68;2.20;;;12.70;99.90;;;;;;5040877;28;20806;-77
2022/10/06 01:25:23;;;;;;;8.02;1.65;;;12.60;99.90;;;;;;5057175;28;20067;-77
2022/10/06 01:27:54;;;;;;;11.07;1.90;;;12.60;99.90;;;;;;5042067;28;20052;-76
2022/10/06 01:30:35;;;;;;;9.60;1.73;;;12.60;99.90;;;;;;5060796;28;20095;-76
2022/10/06 01:33:00;;;;;;;10.90;2.30;;;12.60;99.90;;;;;;5043107;28;20041;-76
2022/10/06 01:35:26;;;;;;;11.63;2.13;;;12.50;99.90;;;;;;5047993;28;20040;-76
2022/10/06 01:37:53;;;;;;;10.88;1.92;;;12.50;99.90;;;;;;5055576;28;20067;-76
2022/10/06 01:40:19;;;;;;;10.25;1.83;;;12.50;99.90;;;;;;5042156;28;20051;-77
2022/10/06 01:42:45;;;;;;;11.27;2.10;;;12.40;99.90;;;;;;5013030;28;20044;-77
2022/10/06 01:45:11;;;;;;;10.57;1.70;;;12.40;99.90;;;;;;5058287;28;20039;-76
2022/10/06 01:47:37;;;;;;;6.13;1.33;;;12.40;99.90;;;;;;5025344;28;20036;-76
2022/10/06 01:50:05;;;;;;;12.00;2.40;;;12.40;99.90;;;;;;5061894;28;20051;-77
2022/10/06 01:52:31;;;;;;;10.82;1.88;;;12.40;99.90;;;;;;5024787;28;20074;-76
2022/10/06 01:54:57;;;;;;;10.32;1.90;;;12.40;99.90;;;;;;5060523;28;20072;-76
2022/10/06 01:57:22;;;;;;;9.98;2.10;;;12.40;99.90;;;;;;5043172;28;20082;-77
2022/10/06 01:59:48;;;;;;;11.88;2.20;;;12.30;99.90;;;;;;5025392;28;20649;-77
2022/10/06 02:02:14;;;;;;;11.00;2.00;;;12.30;99.90;;;;;;5039046;28;20053;-77
2022/10/06 02:04:40;;;;;;;10.68;2.35;;;12.20;99.90;;;;;;5050418;28;20182;-77
2022/10/06 02:07:05;;;;;;;11.40;1.92;;;12.20;99.90;;;;;;5029434;28;20128;-76
2022/10/06 02:09:31;;;;;;;8.82;2.10;;;12.10;99.90;;;;;;5066172;28;20499;-77
2022/10/06 02:11:57;;;;;;;11.55;1.85;;;12.10;99.90;;;;;;5054401;28;20044;-76
2022/10/06 02:14:23;;;;;;;8.88;1.70;;;12.10;99.90;;;;;;5043886;28;20041;-77
2022/10/06 02:16:49;;;;;;;9.27;2.22;;;12.10;99.90;;;;;;5035694;28;20049;-76
2022/10/06 02:19:15;;;;;;;8.70;1.55;;;12.00;99.90;;;;;;5033963;28;20061;-76
2022/10/06 02:21:41;;;;;;;11.10;1.92;;;12.00;99.90;;;;;;5052312;28;20498;-76
2022/10/06 02:24:07;;;;;;;9.98;2.17;;;11.90;99.90;;;;;;5041026;28;20047;-76
2022/10/06 02:26:32;;;;;;;11.70;2.00;;;11.90;99.90;;;;;;5035942;28;20045;-77
2022/10/06 02:28:59;;;;;;;9.68;1.60;;;11.80;99.90;;;;;;5057326;28;20058;-76
2022/10/06 02:31:24;;;;;;;9.85;1.98;;;11.80;99.90;;;;;;5049124;28;20044;-76
2022/10/06 02:33:54;;;;;;;10.80;1.85;;;11.80;99.90;;;;;;5038433;28;20102;-76
2022/10/06 02:36:21;;;;;;;9.10;1.65;;;11.70;99.90;;;;;;4996081;28;20057;-76
2022/10/06 02:38:47;;;;;;;10.65;2.13;;;11.70;99.90;;;;;;5054389;28;20126;-78
2022/10/06 02:41:13;;;;;;;10.23;1.88;;;11.60;99.90;;;;;;5058310;28;20072;-77
2022/10/06 02:43:38;;;;;;;12.07;1.95;;;11.60;99.90;;;;;;5021498;28;20126;-77
2022/10/06 02:46:11;;;;;;;9.07;1.70;;;11.60;99.90;;;;;;5045895;28;20041;-77
2022/10/06 02:48:38;;;;;;;9.20;2.20;;;11.60;99.90;;;;;;5036743;28;20056;-77
2022/10/06 02:51:15;;;;;;;7.22;2.10;;;11.60;99.90;;;;;;5046400;28;20678;-77
2022/10/06 02:53:43;;;;;;;10.20;1.92;;;11.70;99.90;;;;;;5053586;28;20053;-77
2022/10/06 02:56:14;;;;;;;10.10;2.22;;;11.70;99.90;;;;;;5050178;28;20040;-76
2022/10/06 02:58:44;;;;;;;9.35;2.22;;;11.60;99.90;;;;;;5052042;28;20518;-77
2022/10/06 03:01:22;;;;;;;7.70;1.90;;;11.60;99.90;;;;;;5061519;28;20037;-77
2022/10/06 03:03:48;;;;;;;10.05;1.67;;;11.60;99.90;;;;;;5061608;28;20286;-77
2022/10/06 03:06:22;;;;;;;10.63;1.77;;;11.60;99.90;;;;;;5059673;28;20047;-78
2022/10/06 03:08:54;;;;;;;12.15;1.83;;;11.60;99.90;;;;;;5071850;28;20053;-77
2022/10/06 03:11:25;;;;;;;13.13;2.13;;;11.60;99.90;;;;;;5059665;28;20133;-77
2022/10/06 03:13:51;;;;;;;10.32;2.08;;;11.60;99.90;;;;;;5063306;28;20040;-77
2022/10/06 03:16:23;;;;;;;10.40;1.70;;;11.60;99.90;;;;;;5061796;28;20075;-78
2022/10/06 03:18:51;;;;;;;11.63;2.20;;;11.50;99.90;;;;;;5041438;28;20052;-77
2022/10/06 03:21:18;;;;;;;9.35;1.90;;;11.50;99.90;;;;;;5061129;28;20567;-77
2022/10/06 03:23:46;;;;;;;11.23;1.60;;;11.50;99.90;;;;;;5054776;28;20049;-77
2022/10/06 03:26:14;;;;;;;8.13;1.70;;;11.40;99.90;;;;;;5064565;28;20411;-77
2022/10/06 03:28:40;;;;;;;8.70;2.00;;;11.40;99.90;;;;;;5066502;28;20064;-77
2022/10/06 03:31:07;;;;;;;11.13;2.05;;;11.40;99.90;;;;;;5060613;28;20129;-77
2022/10/06 03:33:33;;;;;;;8.90;1.60;;;11.30;99.90;;;;;;5050169;28;20083;-77
2022/10/06 03:36:08;;;;;;;12.35;1.95;;;11.30;99.90;;;;;;5064742;28;20041;-77
2022/10/06 03:38:37;;;;;;;9.68;1.65;;;11.20;99.90;;;;;;5056913;28;20515;-77
2022/10/06 03:41:21;;;;;;;9.85;2.00;;;11.20;99.90;;;;;;5062122;28;20044;-77
2022/10/06 03:43:48;;;;;;;10.18;2.08;;;11.20;99.90;;;;;;5049409;28;20419;-77
2022/10/06 03:46:20;;;;;;;11.02;2.00;;;11.20;99.90;;;;;;5046686;28;20032;-77
2022/10/06 03:48:47;;;;;;;9.48;2.03;;;11.20;99.90;;;;;;5046074;28;20040;-78
2022/10/06 03:51:20;;;;;;;7.20;1.63;;;11.10;99.90;;;;;;5061839;28;20411;-77
2022/10/06 03:53:49;;;;;;;9.38;1.88;;;11.10;99.90;;;;;;5057810;28;20049;-77
2022/10/06 03:56:34;;;;;;;11.00;1.48;;;11.00;99.90;;;;;;5045335;28;20041;-78
2022/10/06 03:59:03;;;;;;;8.00;1.45;;;11.00;99.90;;;;;;5055320;28;20404;-77
2022/10/06 04:01:38;;;;;;;13.32;2.15;;;11.00;99.90;;;;;;5050738;28;20514;-77
2022/10/06 04:04:04;;;;;;;12.35;2.40;;;11.00;99.90;;;;;;5038846;28;20052;-77
2022/10/06 04:06:33;;;;;;;10.50;1.88;;;11.00;99.90;;;;;;5030331;28;20053;-77
2022/10/06 04:08:59;;;;;;;9.57;1.80;;;11.00;99.90;;;;;;5056659;28;20057;-77
2022/10/06 04:11:27;;;;;;;13.55;1.85;;;10.90;99.90;;;;;;5045497;28;20045;-77
2022/10/06 04:14:03;;;;;;;13.55;2.47;;;11.00;99.90;;;;;;5042576;28;20479;-78
2022/10/06 04:16:34;;;;;;;11.32;2.00;;;11.00;99.90;;;;;;5037264;28;20044;-77
2022/10/06 04:19:02;;;;;;;10.10;2.17;;;11.00;99.90;;;;;;5041475;28;20044;-77
2022/10/06 04:21:31;;;;;;;12.18;2.10;;;11.00;99.90;;;;;;5059992;28;20098;-78
2022/10/06 04:23:58;;;;;;;11.50;2.42;;;11.00;99.90;;;;;;5059662;28;20392;-77
2022/10/06 04:26:29;;;;;;;12.65;2.58;;;11.00;99.90;;;;;;5057576;28;20048;-78
2022/10/06 04:28:55;;;;;;;10.18;2.33;;;11.00;99.90;;;;;;5051652;28;20172;-77
2022/10/06 04:31:24;;;;;;;12.07;2.58;;;11.00;99.90;;;;;;5058079;28;20128;-78
2022/10/06 04:33:55;;;;;;;11.77;2.33;;;11.00;99.90;;;;;;5069291;28;20477;-78
2022/10/06 04:36:24;;;;;;;10.57;1.95;;;11.00;99.90;;;;;;5060608;28;20071;-78
2022/10/06 04:38:57;;;;;;;12.48;2.25;;;11.00;99.90;;;;;;5059523;28;20079;-77
2022/10/06 04:41:30;;;;;;;11.10;2.10;;;11.00;99.90;;;;;;5044563;28;20047;-78
2022/10/06 04:43:56;;;;;;;14.15;2.53;;;11.00;99.90;;;;;;5062361;28;20044;-78
2022/10/06 04:46:23;;;;;;;9.20;1.90;;;11.10;99.90;;;;;;5051356;28;20044;-78
2022/10/06 04:48:53;;;;;;;7.00;1.55;;;11.00;99.90;;;;;;5041855;28;20101;-77
2022/10/06 04:51:21;;;;;;;12.95;2.28;;;10.90;99.90;;;;;;5066970;28;20045;-78
2022/10/06 04:53:47;;;;;;;11.25;2.10;;;10.90;99.90;;;;;;5071630;28;20131;-79
2022/10/06 04:56:15;;;;;;;9.48;1.60;;;10.90;99.90;;;;;;5061085;28;20119;-78
2022/10/06 04:58:43;;;;;;;9.75;2.30;;;10.90;99.90;;;;;;5043406;28;20049;-78
2022/10/06 05:01:16;;;;;;;12.45;2.03;;;10.90;99.90;;;;;;5053335;28;20119;-77
2022/10/06 05:03:44;;;;;;;10.68;1.83;;;10.90;99.90;;;;;;5053325;28;20155;-78
2022/10/06 05:06:15;;;;;;;14.13;2.40;;;10.90;99.90;;;;;;5041658;28;20507;-78
2022/10/06 05:08:42;;;;;;;11.52;2.40;;;10.90;99.90;;;;;;5054500;28;20037;-78
2022/10/06 05:11:11;;;;;;;14.98;2.28;;;10.90;99.90;;;;;;5026039;28;20044;-77
2022/10/06 05:13:38;;;;;;;10.20;2.15;;;10.80;99.90;;;;;;5032550;28;20048;-78
2022/10/06 05:16:06;;;;;;;8.57;1.77;;;10.80;99.90;;;;;;5053643;28;20772;-78
2022/10/06 05:18:33;;;;;;;11.35;1.75;;;10.80;99.90;;;;;;5030946;28;20056;-78
2022/10/06 05:21:04;;;;;;;11.57;2.25;;;10.70;99.90;;;;;;5049050;28;20049;-76
2022/10/06 05:23:33;;;;;;;10.25;2.03;;;10.70;99.90;;;;;;5061697;28;20052;-76
2022/10/06 05:26:00;;;;;;;11.65;2.17;;;10.70;99.90;;;;;;5054249;28;20659;-76
2022/10/06 05:28:28;;;;;;;10.50;2.15;;;10.70;99.90;;;;;;5048293;28;20052;-76
2022/10/06 05:31:02;;;;;;;12.45;1.98;;;10.70;99.90;;;;;;5042926;28;20054;-76
2022/10/06 05:33:31;;;;;;;11.80;2.13;;;10.60;99.90;;;;;;5054175;28;20056;-77
2022/10/06 05:36:09;;;;;;;9.13;1.48;;;10.60;99.90;;;;;;5039842;28;20049;-78
2022/10/06 05:38:35;;;;;;;9.15;2.00;;;10.60;99.90;;;;;;5040968;28;20128;-78
2022/10/06 05:41:06;;;;;;;11.05;2.20;;;10.60;99.90;;;;;;5039176;28;20116;-78
2022/10/06 05:43:33;;;;;;;11.77;2.22;;;10.60;99.90;;;;;;5057027;28;20131;-78
2022/10/06 05:46:01;;;;;;;11.48;1.90;;;10.60;99.90;;;;;;5050734;28;20072;-78
2022/10/06 05:48:27;;;;;;;10.90;1.70;;;10.60;99.90;;;;;;5053774;28;20094;-79
2022/10/06 05:51:01;;;;;;;11.40;2.30;;;10.60;99.90;;;;;;5036402;28;20037;-78
2022/10/06 05:53:29;;;;;;;9.80;1.90;;;10.60;99.90;;;;;;5055188;28;20060;-77
2022/10/06 05:56:09;;;;;;;11.32;2.17;;;10.60;99.90;;;;;;5057254;28;20044;-78
2022/10/06 05:58:37;;;;;;;10.15;1.98;;;10.70;99.90;;;;;;5055697;28;20040;-78
2022/10/06 06:01:14;;;;;;;14.63;2.40;;;10.60;99.90;;;;;;5050539;28;20045;-78
2022/10/06 06:03:41;;;;;;;12.93;2.17;;;10.60;99.90;;;;;;5034781;28;21190;-77
2022/10/06 06:06:22;;;;;;;13.45;2.90;;;10.70;99.90;;;;;;5047384;28;20052;-79
2022/10/06 06:09:12;;;;;;;8.70;2.22;;;10.70;99.90;;;;;;5037176;28;20056;-78
2022/10/06 06:11:44;;;;;;;12.43;2.75;;;10.70;99.90;;;;;;5047078;28;20084;-78
2022/10/06 06:14:12;;;;;;;10.70;2.00;;;10.70;99.90;;;;;;5066488;28;20088;-77
2022/10/06 06:16:39;;;;;;;10.18;2.30;;;10.70;99.90;;;;;;5036327;28;20087;-78
2022/10/06 06:19:07;;;;;;;9.75;2.20;;;10.70;99.90;;;;;;5033282;28;20113;-78
2022/10/06 06:21:33;;;;;;;11.10;2.65;;;10.70;99.90;;;;;;5052044;28;20056;-78
2022/10/06 06:23:59;;;;;;;10.75;2.70;;;10.70;99.90;;;;;;5041524;28;20399;-79
2022/10/06 06:26:27;;;;;;;11.63;2.33;;;10.70;99.90;;;;;;5041163;28;20037;-78
2022/10/06 06:28:59;;;;;;;9.38;2.05;;;10.80;99.90;;;;;;5048037;28;20114;-78
2022/10/06 06:31:26;;;;;;;12.70;2.28;;;10.70;99.90;;;;;;5059134;28;21221;-78
2022/10/06 06:33:55;;;;;;;10.32;1.98;;;10.70;99.90;;;;;;5049987;28;20040;-78
2022/10/06 06:36:26;;;;;;;10.07;2.10;;;10.70;99.90;;;;;;5037316;28;20041;-78
2022/10/06 06:38:57;;;;;;;10.98;2.42;;;10.70;99.90;;;;;;5070152;28;20074;-78
2022/10/06 06:41:31;;;;;;;13.75;2.83;;;10.80;99.90;;;;;;5029085;28;20067;-78
2022/10/06 06:44:00;;;;;;;14.07;2.53;;;10.80;99.90;;;;;;5062666;28;20041;-78
2022/10/06 06:46:30;;;;;;;12.82;2.60;;;10.80;99.90;;;;;;5042356;28;20071;-78
2022/10/06 06:48:59;;;;;;;10.63;1.98;;;10.80;99.90;;;;;;5056740;28;20387;-78
2022/10/06 06:51:25;;;;;;;15.63;2.70;;;10.80;99.90;;;;;;5038848;28;20503;-77
2022/10/06 06:53:52;;;;;;;12.02;2.13;;;10.80;99.90;;;;;;5035188;28;20053;-78
2022/10/06 06:56:20;;;;;;;11.10;2.25;;;10.90;99.90;;;;;;5062562;28;20045;-78
2022/10/06 06:58:46;;;;;;;12.90;2.10;;;10.90;99.90;;;;;;5063094;28;20499;-78
2022/10/06 07:01:15;;;;;;;10.45;2.00;;;10.90;99.90;;;;;;5043733;28;20086;-79
2022/10/06 07:03:42;;;;;;;12.77;2.63;;;11.00;99.90;;;;;;5061002;28;20044;-79
2022/10/06 07:06:10;;;;;;;13.82;2.47;;;11.00;99.90;;;;;;5069251;28;20107;-77
2022/10/06 07:08:41;;;;;;;12.75;2.33;;;11.10;99.90;;;;;;5063608;28;20048;-79
2022/10/06 07:11:34;;;;;;;12.30;2.42;;;11.10;99.90;;;;;;5057168;28;20048;-78
2022/10/06 07:14:04;;;;;;;15.57;2.53;;;11.20;99.90;;;;;;5055683;28;20065;-78
2022/10/06 07:25:22;;;;;;;12.68;2.45;;;11.40;99.90;;;;;;5018593;28;20631;-78
2022/10/06 07:27:51;;;;;;;11.82;2.40;;;11.50;99.90;;;;;;5060371;28;20048;-77
2022/10/06 07:30:21;;;;;;;12.13;2.40;;;11.60;99.90;;;;;;5048869;28;20492;-79
2022/10/06 07:32:49;;;;;;;12.82;3.05;;;11.60;99.90;;;;;;5068382;28;20044;-78
2022/10/06 07:35:16;;;;;;;14.65;2.60;;;11.70;99.90;;;;;;5058390;28;20040;-79
2022/10/06 07:37:42;;;;;;;11.52;2.42;;;11.70;99.90;;;;;;5041377;28;20396;-78
2022/10/06 07:40:09;;;;;;;9.52;2.45;;;11.80;99.90;;;;;;5058416;28;20074;-81
2022/10/06 07:42:47;;;;;;;11.32;2.55;;;11.90;99.90;;;;;;5040280;28;20070;-81
2022/10/06 07:45:37;;;;;;;12.75;2.40;;;12.00;99.90;;;;;;5029250;28;20051;-80
2022/10/06 07:48:22;;;;;;;15.40;2.78;;;12.20;99.90;;;;;;5059449;28;20135;-81
2022/10/06 07:50:50;;;;;;;14.02;2.65;;;12.40;99.90;;;;;;5059731;28;20100;-80
2022/10/06 07:53:17;;;;;;;10.30;2.25;;;12.60;99.90;;;;;;5043510;28;20067;-80
2022/10/06 07:55:45;;;;;;;10.57;2.35;;;12.70;99.90;;;;;;5047804;28;20045;-81
2022/10/06 07:58:15;;;;;;;13.30;2.65;;;12.90;99.90;;;;;;5040214;28;20041;-80
2022/10/06 08:00:41;;;;;;;;;;;13.10;99.90;;;;;;5059309;28;20493;-80
2022/10/06 08:03:08;;;;;;;9.25;2.08;;;13.20;99.90;;;;;;5045487;28;19920;-80
2022/10/06 08:05:35;;;;;;;10.55;2.58;;;13.30;99.90;;;;;;5045314;28;21258;-81
2022/10/06 08:08:01;;;;;;;11.63;2.60;;;13.50;99.90;;;;;;5061266;28;20418;-80
2022/10/06 08:10:26;;;;;;;11.77;2.60;;;13.70;99.90;;;;;;5058825;28;20558;-81
2022/10/06 08:12:52;;;;;;;10.27;2.55;;;13.90;99.90;;;;;;5030499;28;20079;-80
2022/10/06 08:15:18;;;;;;;8.93;2.10;;;14.00;99.90;;;;;;5040238;28;20045;-79
2022/10/06 08:17:44;;;;;;;11.65;2.03;;;14.00;99.90;;;;;;5072648;28;20059;-81
2022/10/06 08:20:11;;;;;;;13.95;2.70;;;14.10;99.90;;;;;;5044212;28;20054;-82
2022/10/06 08:22:38;;;;;;;12.60;2.20;;;14.20;99.90;;;;;;5040941;28;20052;-79
2022/10/06 08:25:07;;;;;;;11.45;2.30;;;14.30;99.90;;;;;;5060714;28;20109;-79
2022/10/06 08:27:35;;;;;;;11.98;2.40;;;14.30;99.90;;;;;;5042031;28;20051;-79
2022/10/06 08:30:04;;;;;;;12.75;2.30;;;14.40;99.90;;;;;;5061071;28;20040;-78
2022/10/06 08:32:30;;;;;;;12.55;2.58;;;14.40;99.90;;;;;;5076027;28;20036;-79
2022/10/06 08:34:56;;;;;;;10.52;2.10;;;14.40;99.90;;;;;;5040701;28;20033;-79
2022/10/06 08:37:26;;;;;;;10.63;2.33;;;14.50;99.90;;;;;;5057222;28;20129;-79
2022/10/06 08:39:55;;;;;;;9.50;2.28;;;14.50;99.90;;;;;;5041849;28;20495;-79
2022/10/06 08:42:38;;;;;;;13.15;2.78;;;14.60;99.90;;;;;;5045253;28;20044;-80
2022/10/06 08:45:34;;;;;;;10.55;2.28;;;14.60;99.90;;;;;;5058136;28;20055;-79
2022/10/06 08:48:13;;;;;;;11.20;2.20;;;14.70;99.90;;;;;;5050573;28;20067;-79
2022/10/06 08:50:53;;;;;;;13.13;2.92;;;14.80;99.90;;;;;;5057843;28;20847;-79
2022/10/06 08:53:37;;;;;;;16.70;2.85;;;14.90;99.90;;;;;;5058827;28;20056;-80
2022/10/06 08:56:16;;;;;;;11.32;2.00;;;14.90;99.90;;;;;;5045668;28;20048;-80
2022/10/06 08:58:56;;;;;;;9.10;2.30;;;14.90;99.90;;;;;;5041308;28;20129;-79
2022/10/06 09:01:32;;;;;;;9.07;2.23;;;15.00;99.90;;;;;;5059091;28;20055;-79
2022/10/06 09:04:04;;;;;;;12.10;2.63;;;15.00;99.90;;;;;;5056806;28;20340;-80
2022/10/06 09:06:48;;;;;;;11.05;2.70;;;14.90;99.90;;;;;;5056813;28;20548;-79
2022/10/06 09:09:45;;;;;;;12.43;2.92;;;14.90;99.90;;;;;;5058257;28;20399;-80
2022/10/06 09:12:40;;;;;;;10.05;2.65;;;14.90;99.90;;;;;;5054203;28;20755;-79
2022/10/06 09:15:24;;;;;;;11.32;2.83;;;14.90;99.90;;;;;;5040864;28;20049;-79
2022/10/06 09:18:00;;;;;;;12.23;2.33;;;15.00;99.90;;;;;;5053858;28;20055;-79
2022/10/06 09:20:35;;;;;;;10.30;2.45;;;15.10;99.90;;;;;;5046036;28;20043;-80
2022/10/06 09:23:05;;;;;;;10.02;2.40;;;15.10;99.90;;;;;;5039148;28;20048;-79
2022/10/06 09:25:36;;;;;;;10.88;2.90;;;15.20;99.90;;;;;;5045855;28;20239;-79
2022/10/06 09:28:02;;;;;;;11.50;2.05;;;15.10;99.90;;;;;;5057612;28;20040;-79
2022/10/06 09:30:31;;;;;;;11.35;2.30;;;15.00;99.90;;;;;;5043500;28;20039;-79
2022/10/06 09:33:03;;;;;;;9.57;2.50;;;15.10;99.90;;;;;;5059716;28;20482;-80
2022/10/06 09:35:31;;;;;;;12.30;2.78;;;15.10;99.90;;;;;;5056180;28;20119;-79
2022/10/06 09:38:02;;;;;;;12.52;2.85;;;15.10;99.90;;;;;;5041765;28;20049;-80
2022/10/06 09:40:47;;;;;;;12.38;2.83;;;15.10;99.90;;;;;;5053184;28;20052;-79
2022/10/06 09:43:25;;;;;;;10.98;2.30;;;15.20;99.90;;;;;;5042949;28;20136;-80
2022/10/06 09:46:19;;;;;;;9.63;2.30;;;15.30;99.90;;;;;;5054996;28;20049;-79
2022/10/06 09:48:45;;;;;;;12.40;2.25;;;15.40;99.90;;;;;;5042710;28;20401;-78
2022/10/06 09:51:16;;;;;;;11.43;2.15;;;15.50;99.90;;;;;;5056148;28;20460;-79
2022/10/06 09:53:43;;;;;;;13.13;2.08;;;15.50;99.90;;;;;;5058888;28;20044;-79
2022/10/06 09:56:17;;;;;;;8.10;2.35;;;15.50;99.90;;;;;;5057230;28;20040;-79
2022/10/06 09:58:58;;;;;;;11.45;2.55;;;15.40;99.90;;;;;;5057605;28;20578;-80
2022/10/06 10:01:31;;;;;;;8.63;1.75;;;15.40;99.90;;;;;;5041663;28;20041;-80
2022/10/06 10:04:01;;;;;;;8.43;2.00;;;15.40;99.90;;;;;;5060856;28;20123;-79
2022/10/06 10:06:29;;;;;;;10.70;2.72;;;15.30;99.90;;;;;;5045633;28;20039;-79
2022/10/06 10:09:24;;;;;;;11.05;1.77;;;15.40;99.90;;;;;;5044418;28;20052;-79
2022/10/06 10:12:24;;;;;;;9.30;2.03;;;15.50;99.90;;;;;;5061903;28;20469;-78
2022/10/06 10:14:55;;;;;;;7.93;1.60;;;15.60;99.90;;;;;;5051033;28;20044;-78
2022/10/06 10:17:35;;;;;;;12.77;2.10;;;15.60;99.90;;;;;;5046672;28;20105;-78
2022/10/06 10:20:04;;;;;;;8.48;1.92;;;15.70;99.90;;;;;;5046283;28;20045;-78
2022/10/06 10:22:40;;;;;;;7.40;1.60;;;15.70;99.90;;;;;;5064301;28;20040;-79
2022/10/06 10:25:33;;;;;;;8.43;1.88;;;15.80;99.90;;;;;;5046891;28;20626;-79
2022/10/06 10:28:12;;;;;;;12.00;2.20;;;15.90;99.90;;;;;;5041002;28;20056;-78
2022/10/06 10:30:48;;;;;;;7.67;1.60;;;16.00;99.90;;;;;;5047351;28;20052;-79
2022/10/06 10:33:41;;;;;;;10.90;2.28;;;16.10;99.90;;;;;;5062569;28;20040;-78
2022/10/06 10:36:11;;;;;;;9.82;1.95;;;16.20;99.90;;;;;;5055112;28;20060;-78
2022/10/06 10:38:40;;;;;;;7.35;1.58;;;16.20;99.90;;;;;;5076692;28;20048;-78
2022/10/06 10:41:18;;;;;;;9.27;1.65;;;16.30;99.90;;;;;;5048511;28;20137;-79
2022/10/06 10:43:48;;;;;;;9.10;1.35;;;16.20;99.90;;;;;;5044255;28;20046;-78
2022/10/06 10:46:31;;;;;;;7.95;1.50;;;16.30;99.90;;;;;;5047132;28;20106;-79
2022/10/06 10:49:00;;;;;;;9.75;2.05;;;16.30;99.90;;;;;;5062714;28;20119;-79
2022/10/06 10:51:36;;;;;;;9.23;1.67;;;16.30;99.90;;;;;;5045714;28;20044;-80
2022/10/06 10:54:07;;;;;;;8.90;1.77;;;16.30;99.90;;;;;;5044268;28;20631;-78
2022/10/06 10:56:33;;;;;;;7.38;1.38;;;16.30;99.90;;;;;;5046106;28;20113;-79
2022/10/06 10:59:13;;;;;;;7.70;1.65;;;16.20;99.90;;;;;;5041612;28;20052;-79
2022/10/06 11:01:51;;;;;;;9.38;1.60;;;16.20;99.90;;;;;;5063670;28;20122;-79
2022/10/06 11:04:19;;;;;;;6.97;1.90;;;16.20;99.90;;;;;;5061277;28;20053;-78
2022/10/06 11:06:59;;;;;;;9.05;2.10;;;16.20;99.90;;;;;;5044399;28;20082;-78
2022/10/06 11:09:39;;;;;;;9.75;1.77;;;16.30;99.90;;;;;;5047300;28;20043;-79
2022/10/06 11:12:20;;;;;;;8.60;1.70;;;16.30;99.90;;;;;;5044522;28;20449;-77
2022/10/06 11:14:56;;;;;;;5.60;1.52;;;16.30;99.90;;;;;;5057871;28;22093;-78
2022/10/06 11:17:46;;;;;;;5.63;1.45;;;16.30;99.90;;;;;;5046316;28;20110;-79
2022/10/06 11:20:31;;;;;;;9.27;1.90;;;16.40;99.90;;;;;;5029670;28;20588;-80
2022/10/06 11:23:21;;;;;;;7.00;1.50;;;16.40;99.90;;;;;;5043734;28;20051;-79
2022/10/06 11:26:08;;;;;;;7.38;1.50;;;16.30;99.90;;;;;;5062060;28;20060;-79
2022/10/06 11:28:58;;;;;;;7.63;1.33;;;16.20;99.90;;;;;;5062141;28;20047;-79
2022/10/06 11:31:30;;;;;;;7.97;1.42;;;16.20;99.90;;;;;;5061145;28;20056;-78
2022/10/06 11:34:00;;;;;;;7.90;1.77;;;16.30;99.90;;;;;;5047649;28;20072;-79
2022/10/06 11:36:45;;;;;;;6.47;1.17;;;16.40;99.90;;;;;;5044715;28;20133;-79
2022/10/06 11:39:19;;;;;;;7.78;1.52;;;16.50;99.90;;;;;;5071978;28;20185;-79
2022/10/06 11:41:51;;;;;;;5.57;1.50;;;16.50;99.90;;;;;;5047829;28;20074;-79
2022/10/06 11:44:44;;;;;;;7.32;1.25;;;16.50;99.90;;;;;;5057200;28;20055;-78
2022/10/06 11:47:18;;;;;;;5.45;1.35;;;16.60;99.90;;;;;;5058573;28;20052;-77
2022/10/06 11:49:52;;;;;;;7.15;1.40;;;16.60;99.90;;;;;;5044571;28;20049;-78
2022/10/06 11:52:18;;;;;;;4.53;0.98;;;16.80;99.90;;;;;;5059127;28;20044;-78
2022/10/06 11:54:46;;;;;;;8.20;1.48;;;16.80;99.90;;;;;;5063540;28;20045;-79
2022/10/06 11:57:21;;;;;;;6.60;1.35;;;16.80;99.90;;;;;;5045372;28;20055;-78
2022/10/06 12:00:07;;;;;;;8.13;1.73;;;16.60;99.90;;;;;;5045326;28;20049;-78
2022/10/06 12:02:40;;;;;;;8.68;1.58;;;16.50;99.90;;;;;;5078269;28;20053;-79
2022/10/06 12:05:09;;;;;;;5.57;1.20;;;16.50;99.90;;;;;;5044072;28;20047;-79
2022/10/06 12:07:56;;;;;;;8.02;1.40;;;16.60;99.90;;;;;;5045343;28;20114;-76
2022/10/06 12:10:28;;;;;;;7.55;1.25;;;16.70;99.90;;;;;;5058800;28;20657;-78
2022/10/06 12:13:09;;;;;;;7.60;1.50;;;16.70;99.90;;;;;;5047437;28;20055;-77
2022/10/06 12:15:47;;;;;;;5.60;1.27;;;16.70;99.90;;;;;;5062960;28;20041;-78
2022/10/06 12:18:20;;;;;;;6.25;1.15;;;16.80;99.90;;;;;;5042535;28;20398;-78
2022/10/06 12:20:59;;;;;;;6.43;1.20;;;16.80;99.90;;;;;;5061675;28;20060;-78
2022/10/06 12:23:52;;;;;;;6.50;1.33;;;16.80;99.90;;;;;;5043709;28;20053;-77
2022/10/06 12:26:30;;;;;;;5.63;1.23;;;16.80;99.90;;;;;;5059672;28;20083;-77
2022/10/06 12:29:31;;;;;;;7.15;1.00;;;16.80;99.90;;;;;;5078328;28;20060;-78
2022/10/06 12:32:18;;;;;;;6.25;1.58;;;16.80;99.90;;;;;;5056473;28;20052;-78
2022/10/06 12:35:06;;;;;;;5.95;1.23;;;16.80;99.90;;;;;;5043661;28;20036;-77
2022/10/06 12:37:44;;;;;;;7.43;1.17;;;16.80;99.90;;;;;;5055873;28;20151;-78
2022/10/06 12:40:56;;;;;;;7.80;1.40;;;16.90;99.90;;;;;;5042933;28;20052;-77
2022/10/06 12:43:22;;;;;;;6.72;1.40;;;16.90;99.90;;;;;;5055290;28;20060;-77
2022/10/06 12:46:12;;;;;;;6.35;1.20;;;16.90;99.90;;;;;;5060259;28;20503;-78
2022/10/06 12:49:05;;;;;;;9.40;1.30;;;16.80;99.90;;;;;;5060296;28;20044;-77
2022/10/06 12:51:38;;;;;;;6.85;1.20;;;16.80;99.90;;;;;;5055121;28;20049;-77
2022/10/06 12:54:19;;;;;;;5.65;1.30;;;16.90;99.90;;;;;;5058009;28;20044;-78
2022/10/06 12:57:15;;;;;;;8.20;1.33;;;16.90;99.90;;;;;;5057957;28;20435;-78
2022/10/06 12:59:42;;;;;;;6.95;1.30;;;16.90;99.90;;;;;;5035117;28;20048;-78
2022/10/06 13:02:15;;;;;;;6.95;1.20;;;16.90;99.90;;;;;;5044743;28;20110;-78
2022/10/06 13:05:08;;;;;;;5.90;1.20;;;17.00;99.90;;;;;;5043255;28;20033;-78
2022/10/06 13:08:03;;;;;;;9.20;1.20;;;17.00;99.90;;;;;;5062127;28;20049;-78
2022/10/06 13:10:31;;;;;;;5.82;1.40;;;17.10;99.90;;;;;;5075144;28;20052;-78
2022/10/06 13:12:58;;;;;;;6.03;1.30;;;17.00;99.90;;;;;;5056535;28;20090;-79
2022/10/06 13:15:28;;;;;;;9.02;1.38;;;17.00;99.90;;;;;;5042985;28;20049;-78
2022/10/06 13:18:04;;;;;;;5.72;1.20;;;17.00;99.90;;;;;;5037504;28;20088;-78
2022/10/06 13:20:48;;;;;;;7.35;1.55;;;17.00;99.90;;;;;;5059190;28;20071;-79